Muir of Ord, United Kingdom
Current Conditions -  °F | °C
As of 5:50 PM on Saturday 25 Oct 2014 (Local Time) from EGPE Reporting Station
Rain Showers Rain Showers  
Wind Chill: 50°   Ceiling: Unl
Heat Index: 50°   Visibility: 6mi
Dew Point: 45°   Wind: 26mph
Humidity: 82%   Direction: 210°SSW
Pressure: 29.47"   Gusts: 41mph
Location:  57.52°N, 4.46°W
Report Text: EGPE 251650Z 21023G36KT 9999 VCSH FEW020 10/07 Q0998
Loading
Personal Weather Stations






























Interactive Weather Map
Tropical Storm Tracking
New forecast layout! Learn more

10-Day Weather Forecast

Advertisements
Track Severe Weather on mobile